sensor_id;sensor_type;location;lat;lon;timestamp;P1;durP1;ratioP1;P2;durP2;ratioP2
7965;SDS011;4028;43.272;26.932;2023-04-03T00:02:04;3.00;;;1.60;;
7965;SDS011;4028;43.272;26.932;2023-04-03T00:04:30;2.43;;;1.50;;
7965;SDS011;4028;43.272;26.932;2023-04-03T00:06:55;1.90;;;1.73;;
7965;SDS011;4028;43.272;26.932;2023-04-03T00:09:21;2.63;;;1.87;;
7965;SDS011;4028;43.272;26.932;2023-04-03T00:11:46;4.93;;;1.60;;
7965;SDS011;4028;43.272;26.932;2023-04-03T00:14:11;2.67;;;2.07;;
7965;SDS011;4028;43.272;26.932;2023-04-03T00:16:37;2.07;;;1.60;;
7965;SDS011;4028;43.272;26.932;2023-04-03T00:19:02;2.00;;;1.77;;
7965;SDS011;4028;43.272;26.932;2023-04-03T00:21:28;2.73;;;1.80;;
7965;SDS011;4028;43.272;26.932;2023-04-03T00:23:53;2.30;;;1.80;;
7965;SDS011;4028;43.272;26.932;2023-04-03T00:26:19;1.70;;;1.60;;
7965;SDS011;4028;43.272;26.932;2023-04-03T00:28:45;2.43;;;1.50;;
7965;SDS011;4028;43.272;26.932;2023-04-03T00:31:13;1.90;;;1.60;;
7965;SDS011;4028;43.272;26.932;2023-04-03T00:33:40;1.47;;;1.37;;
7965;SDS011;4028;43.272;26.932;2023-04-03T00:36:09;2.00;;;1.70;;
7965;SDS011;4028;43.272;26.932;2023-04-03T00:38:35;1.70;;;1.50;;
7965;SDS011;4028;43.272;26.932;2023-04-03T00:41:01;1.50;;;1.40;;
7965;SDS011;4028;43.272;26.932;2023-04-03T00:43:27;1.60;;;1.50;;
7965;SDS011;4028;43.272;26.932;2023-04-03T00:45:54;2.67;;;1.43;;
7965;SDS011;4028;43.272;26.932;2023-04-03T00:48:26;1.70;;;1.60;;
7965;SDS011;4028;43.272;26.932;2023-04-03T00:51:01;2.00;;;1.43;;
7965;SDS011;4028;43.272;26.932;2023-04-03T00:53:32;1.73;;;1.57;;
7965;SDS011;4028;43.272;26.932;2023-04-03T00:56:02;2.57;;;2.30;;
7965;SDS011;4028;43.272;26.932;2023-04-03T00:58:54;1.97;;;1.50;;
7965;SDS011;4028;43.272;26.932;2023-04-03T01:01:30;1.97;;;1.77;;
7965;SDS011;4028;43.272;26.932;2023-04-03T01:03:58;1.63;;;1.50;;
7965;SDS011;4028;43.272;26.932;2023-04-03T01:06:26;2.03;;;1.73;;
7965;SDS011;4028;43.272;26.932;2023-04-03T01:08:56;1.90;;;1.50;;
7965;SDS011;4028;43.272;26.932;2023-04-03T01:11:21;1.97;;;1.63;;
7965;SDS011;4028;43.272;26.932;2023-04-03T01:13:47;2.30;;;1.70;;
7965;SDS011;4028;43.272;26.932;2023-04-03T01:16:14;2.23;;;1.60;;
7965;SDS011;4028;43.272;26.932;2023-04-03T01:18:40;2.03;;;1.60;;
7965;SDS011;4028;43.272;26.932;2023-04-03T01:26:09;1.83;;;1.73;;
7965;SDS011;4028;43.272;26.932;2023-04-03T01:28:36;2.53;;;2.00;;
7965;SDS011;4028;43.272;26.932;2023-04-03T01:33:51;2.40;;;2.20;;
7965;SDS011;4028;43.272;26.932;2023-04-03T01:36:19;2.30;;;2.10;;
7965;SDS011;4028;43.272;26.932;2023-04-03T01:38:49;2.30;;;2.10;;
7965;SDS011;4028;43.272;26.932;2023-04-03T01:41:15;2.30;;;2.10;;
7965;SDS011;4028;43.272;26.932;2023-04-03T01:43:42;2.20;;;2.00;;
7965;SDS011;4028;43.272;26.932;2023-04-03T01:46:07;1.93;;;1.77;;
7965;SDS011;4028;43.272;26.932;2023-04-03T01:48:33;2.40;;;1.70;;
7965;SDS011;4028;43.272;26.932;2023-04-03T01:50:58;2.20;;;2.00;;
7965;SDS011;4028;43.272;26.932;2023-04-03T01:53:24;1.80;;;1.70;;
7965;SDS011;4028;43.272;26.932;2023-04-03T01:55:49;2.03;;;1.83;;
7965;SDS011;4028;43.272;26.932;2023-04-03T01:58:15;2.10;;;1.93;;
7965;SDS011;4028;43.272;26.932;2023-04-03T02:00:40;2.23;;;1.90;;
7965;SDS011;4028;43.272;26.932;2023-04-03T02:03:06;2.57;;;1.83;;
7965;SDS011;4028;43.272;26.932;2023-04-03T02:05:31;2.50;;;2.10;;
7965;SDS011;4028;43.272;26.932;2023-04-03T02:07:57;2.70;;;2.17;;
7965;SDS011;4028;43.272;26.932;2023-04-03T02:10:23;1.97;;;1.70;;
7965;SDS011;4028;43.272;26.932;2023-04-03T02:12:48;2.07;;;1.80;;
7965;SDS011;4028;43.272;26.932;2023-04-03T02:15:14;1.80;;;1.70;;
7965;SDS011;4028;43.272;26.932;2023-04-03T02:17:39;2.43;;;1.90;;
7965;SDS011;4028;43.272;26.932;2023-04-03T02:20:05;2.17;;;1.63;;
7965;SDS011;4028;43.272;26.932;2023-04-03T02:22:31;2.73;;;1.93;;
7965;SDS011;4028;43.272;26.932;2023-04-03T02:24:56;2.20;;;2.00;;
7965;SDS011;4028;43.272;26.932;2023-04-03T02:27:22;2.83;;;2.13;;
7965;SDS011;4028;43.272;26.932;2023-04-03T02:29:47;5.03;;;3.10;;
7965;SDS011;4028;43.272;26.932;2023-04-03T02:32:13;7.13;;;4.87;;
7965;SDS011;4028;43.272;26.932;2023-04-03T02:34:38;6.07;;;3.50;;
7965;SDS011;4028;43.272;26.932;2023-04-03T02:37:04;3.30;;;2.90;;
7965;SDS011;4028;43.272;26.932;2023-04-03T02:39:29;3.13;;;2.70;;
7965;SDS011;4028;43.272;26.932;2023-04-03T02:41:55;5.33;;;2.80;;
7965;SDS011;4028;43.272;26.932;2023-04-03T02:44:20;3.20;;;2.90;;
7965;SDS011;4028;43.272;26.932;2023-04-03T02:46:46;4.23;;;2.80;;
7965;SDS011;4028;43.272;26.932;2023-04-03T02:49:12;3.53;;;2.73;;
7965;SDS011;4028;43.272;26.932;2023-04-03T02:51:38;2.70;;;2.30;;
7965;SDS011;4028;43.272;26.932;2023-04-03T02:54:03;3.10;;;2.80;;
7965;SDS011;4028;43.272;26.932;2023-04-03T02:56:29;3.30;;;2.70;;
7965;SDS011;4028;43.272;26.932;2023-04-03T02:58:55;4.30;;;3.00;;
7965;SDS011;4028;43.272;26.932;2023-04-03T03:01:20;3.20;;;2.63;;
7965;SDS011;4028;43.272;26.932;2023-04-03T03:03:46;3.43;;;3.03;;
7965;SDS011;4028;43.272;26.932;2023-04-03T03:06:15;3.57;;;2.60;;
7965;SDS011;4028;43.272;26.932;2023-04-03T03:08:41;4.20;;;2.70;;
7965;SDS011;4028;43.272;26.932;2023-04-03T03:11:07;3.83;;;3.33;;
7965;SDS011;4028;43.272;26.932;2023-04-03T03:13:33;2.73;;;2.50;;
7965;SDS011;4028;43.272;26.932;2023-04-03T03:15:59;4.90;;;2.97;;
7965;SDS011;4028;43.272;26.932;2023-04-03T03:18:25;3.70;;;3.03;;
7965;SDS011;4028;43.272;26.932;2023-04-03T03:20:51;3.93;;;2.50;;
7965;SDS011;4028;43.272;26.932;2023-04-03T03:23:17;4.23;;;2.50;;
7965;SDS011;4028;43.272;26.932;2023-04-03T03:25:43;3.20;;;2.63;;
7965;SDS011;4028;43.272;26.932;2023-04-03T03:28:09;4.63;;;2.83;;
7965;SDS011;4028;43.272;26.932;2023-04-03T03:30:34;4.63;;;3.40;;
7965;SDS011;4028;43.272;26.932;2023-04-03T03:33:00;7.97;;;3.87;;
7965;SDS011;4028;43.272;26.932;2023-04-03T03:35:26;6.00;;;3.77;;
7965;SDS011;4028;43.272;26.932;2023-04-03T03:37:52;4.87;;;3.87;;
7965;SDS011;4028;43.272;26.932;2023-04-03T03:40:17;4.73;;;3.57;;
7965;SDS011;4028;43.272;26.932;2023-04-03T03:42:43;5.07;;;4.50;;
7965;SDS011;4028;43.272;26.932;2023-04-03T03:45:08;4.30;;;3.90;;
7965;SDS011;4028;43.272;26.932;2023-04-03T03:47:34;7.70;;;3.63;;
7965;SDS011;4028;43.272;26.932;2023-04-03T03:50:00;5.13;;;3.80;;
7965;SDS011;4028;43.272;26.932;2023-04-03T03:52:26;5.43;;;4.20;;
7965;SDS011;4028;43.272;26.932;2023-04-03T03:54:52;4.23;;;3.83;;
7965;SDS011;4028;43.272;26.932;2023-04-03T03:57:17;8.63;;;3.40;;
7965;SDS011;4028;43.272;26.932;2023-04-03T03:59:43;4.90;;;3.67;;
7965;SDS011;4028;43.272;26.932;2023-04-03T04:02:09;4.63;;;3.40;;
7965;SDS011;4028;43.272;26.932;2023-04-03T04:04:35;6.23;;;3.73;;
7965;SDS011;4028;43.272;26.932;2023-04-03T04:07:01;7.10;;;4.30;;
7965;SDS011;4028;43.272;26.932;2023-04-03T04:09:27;11.20;;;5.10;;
7965;SDS011;4028;43.272;26.932;2023-04-03T04:11:53;7.43;;;4.47;;
7965;SDS011;4028;43.272;26.932;2023-04-03T04:14:18;7.43;;;4.80;;
7965;SDS011;4028;43.272;26.932;2023-04-03T04:16:45;8.87;;;5.40;;
7965;SDS011;4028;43.272;26.932;2023-04-03T04:19:12;6.13;;;5.10;;
7965;SDS011;4028;43.272;26.932;2023-04-03T04:21:38;6.03;;;5.03;;
7965;SDS011;4028;43.272;26.932;2023-04-03T04:24:04;9.87;;;4.90;;
7965;SDS011;4028;43.272;26.932;2023-04-03T04:26:30;12.10;;;4.77;;
7965;SDS011;4028;43.272;26.932;2023-04-03T04:28:56;3.90;;;3.50;;
7965;SDS011;4028;43.272;26.932;2023-04-03T04:31:21;8.00;;;3.70;;
7965;SDS011;4028;43.272;26.932;2023-04-03T04:33:47;5.10;;;2.80;;
7965;SDS011;4028;43.272;26.932;2023-04-03T04:36:12;3.60;;;3.10;;
7965;SDS011;4028;43.272;26.932;2023-04-03T04:38:39;5.57;;;3.80;;
7965;SDS011;4028;43.272;26.932;2023-04-03T04:41:05;3.70;;;3.40;;
7965;SDS011;4028;43.272;26.932;2023-04-03T04:43:31;6.73;;;3.87;;
7965;SDS011;4028;43.272;26.932;2023-04-03T04:46:00;6.47;;;3.70;;
7965;SDS011;4028;43.272;26.932;2023-04-03T04:48:30;6.57;;;3.43;;
7965;SDS011;4028;43.272;26.932;2023-04-03T04:50:56;6.60;;;4.13;;
7965;SDS011;4028;43.272;26.932;2023-04-03T04:53:22;7.60;;;4.17;;
7965;SDS011;4028;43.272;26.932;2023-04-03T04:55:47;4.80;;;3.87;;
7965;SDS011;4028;43.272;26.932;2023-04-03T04:58:13;6.53;;;3.93;;
7965;SDS011;4028;43.272;26.932;2023-04-03T05:00:38;4.60;;;3.70;;
7965;SDS011;4028;43.272;26.932;2023-04-03T05:03:04;4.20;;;3.50;;
7965;SDS011;4028;43.272;26.932;2023-04-03T05:05:30;7.37;;;5.57;;
7965;SDS011;4028;43.272;26.932;2023-04-03T05:07:55;5.63;;;4.67;;
7965;SDS011;4028;43.272;26.932;2023-04-03T05:10:21;5.50;;;3.80;;
7965;SDS011;4028;43.272;26.932;2023-04-03T05:12:46;7.87;;;4.23;;
7965;SDS011;4028;43.272;26.932;2023-04-03T05:15:12;6.67;;;3.90;;
7965;SDS011;4028;43.272;26.932;2023-04-03T05:17:37;4.07;;;3.03;;
7965;SDS011;4028;43.272;26.932;2023-04-03T05:20:03;4.80;;;3.73;;
7965;SDS011;4028;43.272;26.932;2023-04-03T05:22:30;4.93;;;3.87;;
7965;SDS011;4028;43.272;26.932;2023-04-03T05:24:55;5.23;;;3.53;;
7965;SDS011;4028;43.272;26.932;2023-04-03T05:27:21;9.70;;;6.33;;
7965;SDS011;4028;43.272;26.932;2023-04-03T05:29:49;13.47;;;7.03;;
7965;SDS011;4028;43.272;26.932;2023-04-03T05:32:14;21.77;;;14.00;;
7965;SDS011;4028;43.272;26.932;2023-04-03T05:34:40;15.80;;;9.00;;
7965;SDS011;4028;43.272;26.932;2023-04-03T05:37:06;19.20;;;11.80;;
7965;SDS011;4028;43.272;26.932;2023-04-03T05:39:31;20.60;;;14.13;;
7965;SDS011;4028;43.272;26.932;2023-04-03T05:41:57;11.70;;;8.87;;
7965;SDS011;4028;43.272;26.932;2023-04-03T05:44:22;11.73;;;6.80;;
7965;SDS011;4028;43.272;26.932;2023-04-03T05:46:48;16.27;;;6.50;;
7965;SDS011;4028;43.272;26.932;2023-04-03T05:49:13;15.27;;;6.63;;
7965;SDS011;4028;43.272;26.932;2023-04-03T05:51:39;9.07;;;5.63;;
7965;SDS011;4028;43.272;26.932;2023-04-03T05:54:08;9.27;;;6.07;;
7965;SDS011;4028;43.272;26.932;2023-04-03T05:56:37;5.67;;;3.40;;
7965;SDS011;4028;43.272;26.932;2023-04-03T05:59:03;3.50;;;3.20;;
7965;SDS011;4028;43.272;26.932;2023-04-03T06:01:28;3.80;;;3.40;;
7965;SDS011;4028;43.272;26.932;2023-04-03T06:03:54;4.77;;;3.30;;
7965;SDS011;4028;43.272;26.932;2023-04-03T06:06:19;7.30;;;3.30;;
7965;SDS011;4028;43.272;26.932;2023-04-03T06:08:47;3.77;;;2.93;;
7965;SDS011;4028;43.272;26.932;2023-04-03T06:11:12;4.67;;;2.70;;
7965;SDS011;4028;43.272;26.932;2023-04-03T06:13:38;6.30;;;3.93;;
7965;SDS011;4028;43.272;26.932;2023-04-03T06:16:04;3.10;;;2.80;;
7965;SDS011;4028;43.272;26.932;2023-04-03T06:18:30;4.33;;;3.00;;
7965;SDS011;4028;43.272;26.932;2023-04-03T06:20:56;3.50;;;2.80;;
7965;SDS011;4028;43.272;26.932;2023-04-03T06:23:23;3.87;;;2.97;;
7965;SDS011;4028;43.272;26.932;2023-04-03T06:25:48;3.20;;;2.90;;
7965;SDS011;4028;43.272;26.932;2023-04-03T06:28:14;4.27;;;3.00;;
7965;SDS011;4028;43.272;26.932;2023-04-03T06:30:39;4.90;;;3.27;;
7965;SDS011;4028;43.272;26.932;2023-04-03T06:33:05;4.43;;;3.40;;
7965;SDS011;4028;43.272;26.932;2023-04-03T06:35:30;3.53;;;2.77;;
7965;SDS011;4028;43.272;26.932;2023-04-03T06:37:56;2.20;;;2.00;;
7965;SDS011;4028;43.272;26.932;2023-04-03T06:40:23;6.00;;;3.33;;
7965;SDS011;4028;43.272;26.932;2023-04-03T06:42:51;6.90;;;3.93;;
7965;SDS011;4028;43.272;26.932;2023-04-03T06:45:16;3.75;;;3.10;;
7965;SDS011;4028;43.272;26.932;2023-04-03T06:47:42;5.00;;;3.50;;
7965;SDS011;4028;43.272;26.932;2023-04-03T06:50:09;7.22;;;3.50;;
7965;SDS011;4028;43.272;26.932;2023-04-03T06:52:36;5.97;;;4.20;;
7965;SDS011;4028;43.272;26.932;2023-04-03T06:55:02;7.55;;;3.53;;
7965;SDS011;4028;43.272;26.932;2023-04-03T06:57:28;5.70;;;3.22;;
7965;SDS011;4028;43.272;26.932;2023-04-03T06:59:54;3.78;;;2.35;;
7965;SDS011;4028;43.272;26.932;2023-04-03T07:02:20;2.67;;;1.90;;
7965;SDS011;4028;43.272;26.932;2023-04-03T07:04:46;1.90;;;1.80;;
7965;SDS011;4028;43.272;26.932;2023-04-03T07:07:12;1.88;;;1.77;;
7965;SDS011;4028;43.272;26.932;2023-04-03T07:09:37;2.30;;;2.10;;
7965;SDS011;4028;43.272;26.932;2023-04-03T07:12:03;2.20;;;1.93;;
7965;SDS011;4028;43.272;26.932;2023-04-03T07:14:28;2.58;;;2.03;;
7965;SDS011;4028;43.272;26.932;2023-04-03T07:16:54;2.80;;;1.80;;
7965;SDS011;4028;43.272;26.932;2023-04-03T07:19:19;5.38;;;3.35;;
7965;SDS011;4028;43.272;26.932;2023-04-03T07:21:46;4.90;;;3.83;;
7965;SDS011;4028;43.272;26.932;2023-04-03T07:24:12;7.13;;;4.57;;
7965;SDS011;4028;43.272;26.932;2023-04-03T07:26:37;6.17;;;4.83;;
7965;SDS011;4028;43.272;26.932;2023-04-03T07:29:03;5.10;;;3.77;;
7965;SDS011;4028;43.272;26.932;2023-04-03T07:31:28;5.40;;;3.53;;
7965;SDS011;4028;43.272;26.932;2023-04-03T07:33:54;6.07;;;4.30;;
7965;SDS011;4028;43.272;26.932;2023-04-03T07:36:20;7.23;;;3.90;;
7965;SDS011;4028;43.272;26.932;2023-04-03T07:38:47;5.23;;;3.87;;
7965;SDS011;4028;43.272;26.932;2023-04-03T07:41:16;5.60;;;4.00;;
7965;SDS011;4028;43.272;26.932;2023-04-03T07:43:44;8.48;;;3.70;;
7965;SDS011;4028;43.272;26.932;2023-04-03T07:46:10;8.15;;;4.00;;
7965;SDS011;4028;43.272;26.932;2023-04-03T07:48:36;6.63;;;3.20;;
7965;SDS011;4028;43.272;26.932;2023-04-03T07:51:02;3.45;;;3.00;;
7965;SDS011;4028;43.272;26.932;2023-04-03T07:53:29;5.80;;;3.78;;
7965;SDS011;4028;43.272;26.932;2023-04-03T07:55:56;9.40;;;4.90;;
7965;SDS011;4028;43.272;26.932;2023-04-03T07:58:24;6.38;;;3.80;;
7965;SDS011;4028;43.272;26.932;2023-04-03T08:00:50;7.20;;;4.28;;
7965;SDS011;4028;43.272;26.932;2023-04-03T08:03:17;6.65;;;3.80;;
7965;SDS011;4028;43.272;26.932;2023-04-03T08:05:43;5.55;;;3.35;;
7965;SDS011;4028;43.272;26.932;2023-04-03T08:08:11;8.38;;;3.90;;
7965;SDS011;4028;43.272;26.932;2023-04-03T08:10:39;7.65;;;4.72;;
7965;SDS011;4028;43.272;26.932;2023-04-03T08:13:05;5.07;;;4.22;;
7965;SDS011;4028;43.272;26.932;2023-04-03T08:15:31;8.30;;;3.55;;
7965;SDS011;4028;43.272;26.932;2023-04-03T08:17:57;5.18;;;3.33;;
7965;SDS011;4028;43.272;26.932;2023-04-03T08:20:23;3.20;;;2.60;;
7965;SDS011;4028;43.272;26.932;2023-04-03T08:22:48;3.97;;;3.15;;
7965;SDS011;4028;43.272;26.932;2023-04-03T08:25:14;6.15;;;4.00;;
7965;SDS011;4028;43.272;26.932;2023-04-03T08:27:40;4.93;;;2.22;;
7965;SDS011;4028;43.272;26.932;2023-04-03T08:30:05;3.05;;;2.20;;
7965;SDS011;4028;43.272;26.932;2023-04-03T08:32:33;2.25;;;2.00;;
7965;SDS011;4028;43.272;26.932;2023-04-03T08:35:00;1.98;;;1.67;;
7965;SDS011;4028;43.272;26.932;2023-04-03T08:37:25;2.40;;;1.88;;
7965;SDS011;4028;43.272;26.932;2023-04-03T08:39:51;3.10;;;2.08;;
7965;SDS011;4028;43.272;26.932;2023-04-03T08:43:04;5.53;;;1.80;;
7965;SDS011;4028;43.272;26.932;2023-04-03T08:48:05;2.70;;;1.70;;
7965;SDS011;4028;43.272;26.932;2023-04-03T08:50:48;2.55;;;2.00;;
7965;SDS011;4028;43.272;26.932;2023-04-03T08:53:19;3.45;;;2.00;;
7965;SDS011;4028;43.272;26.932;2023-04-03T08:55:53;2.38;;;1.77;;
7965;SDS011;4028;43.272;26.932;2023-04-03T09:03:31;2.92;;;2.03;;
7965;SDS011;4028;43.272;26.932;2023-04-03T09:06:00;2.85;;;2.10;;
7965;SDS011;4028;43.272;26.932;2023-04-03T09:08:29;2.90;;;2.60;;
7965;SDS011;4028;43.272;26.932;2023-04-03T09:16:27;3.17;;;1.63;;
7965;SDS011;4028;43.272;26.932;2023-04-03T09:19:22;2.17;;;1.67;;
7965;SDS011;4028;43.272;26.932;2023-04-03T09:22:01;2.00;;;1.80;;
7965;SDS011;4028;43.272;26.932;2023-04-03T09:24:37;4.70;;;2.50;;
7965;SDS011;4028;43.272;26.932;2023-04-03T09:27:04;3.03;;;2.72;;
7965;SDS011;4028;43.272;26.932;2023-04-03T09:29:31;3.55;;;2.95;;
7965;SDS011;4028;43.272;26.932;2023-04-03T09:32:11;2.65;;;2.20;;
7965;SDS011;4028;43.272;26.932;2023-04-03T09:35:04;2.53;;;2.33;;
7965;SDS011;4028;43.272;26.932;2023-04-03T09:37:44;3.10;;;2.90;;
7965;SDS011;4028;43.272;26.932;2023-04-03T09:42:50;3.15;;;2.92;;
7965;SDS011;4028;43.272;26.932;2023-04-03T09:45:28;2.95;;;2.65;;
7965;SDS011;4028;43.272;26.932;2023-04-03T09:48:08;5.70;;;2.45;;
7965;SDS011;4028;43.272;26.932;2023-04-03T09:53:40;2.50;;;2.10;;
7965;SDS011;4028;43.272;26.932;2023-04-03T09:59:27;2.15;;;1.90;;
7965;SDS011;4028;43.272;26.932;2023-04-03T10:01:31;1.83;;;1.73;;
7965;SDS011;4028;43.272;26.932;2023-04-03T10:04:36;1.98;;;1.80;;
7965;SDS011;4028;43.272;26.932;2023-04-03T10:09:22;1.88;;;1.77;;
7965;SDS011;4028;43.272;26.932;2023-04-03T10:12:05;2.38;;;2.00;;
7965;SDS011;4028;43.272;26.932;2023-04-03T10:14:33;1.90;;;1.80;;
7965;SDS011;4028;43.272;26.932;2023-04-03T10:33:17;2.08;;;1.90;;
7965;SDS011;4028;43.272;26.932;2023-04-03T10:36:08;2.00;;;1.80;;
7965;SDS011;4028;43.272;26.932;2023-04-03T10:41:32;2.50;;;2.30;;
7965;SDS011;4028;43.272;26.932;2023-04-03T10:47:18;4.00;;;2.35;;
7965;SDS011;4028;43.272;26.932;2023-04-03T10:53:08;2.50;;;2.30;;
7965;SDS011;4028;43.272;26.932;2023-04-03T10:56:29;2.58;;;2.25;;
7965;SDS011;4028;43.272;26.932;2023-04-03T11:01:09;4.30;;;3.10;;
7965;SDS011;4028;43.272;26.932;2023-04-03T11:04:00;5.03;;;2.70;;
7965;SDS011;4028;43.272;26.932;2023-04-03T11:06:33;2.78;;;2.28;;
7965;SDS011;4028;43.272;26.932;2023-04-03T11:09:11;3.00;;;2.60;;
7965;SDS011;4028;43.272;26.932;2023-04-03T11:11:41;2.60;;;2.40;;
7965;SDS011;4028;43.272;26.932;2023-04-03T11:14:13;3.88;;;2.10;;
7965;SDS011;4028;43.272;26.932;2023-04-03T11:16:47;3.83;;;2.40;;
7965;SDS011;4028;43.272;26.932;2023-04-03T11:19:21;2.58;;;2.38;;
7965;SDS011;4028;43.272;26.932;2023-04-03T11:25:36;3.60;;;2.40;;
7965;SDS011;4028;43.272;26.932;2023-04-03T11:30:07;2.30;;;2.10;;
7965;SDS011;4028;43.272;26.932;2023-04-03T11:35:23;2.72;;;1.88;;
7965;SDS011;4028;43.272;26.932;2023-04-03T11:37:51;2.05;;;1.75;;
7965;SDS011;4028;43.272;26.932;2023-04-03T11:40:25;1.95;;;1.65;;
7965;SDS011;4028;43.272;26.932;2023-04-03T11:43:06;3.75;;;2.00;;
7965;SDS011;4028;43.272;26.932;2023-04-03T11:50:57;2.92;;;2.25;;
7965;SDS011;4028;43.272;26.932;2023-04-03T11:53:45;2.85;;;1.90;;
7965;SDS011;4028;43.272;26.932;2023-04-03T11:56:32;1.75;;;1.65;;
7965;SDS011;4028;43.272;26.932;2023-04-03T12:04:20;3.10;;;2.78;;
7965;SDS011;4028;43.272;26.932;2023-04-03T12:14:52;4.57;;;2.63;;
7965;SDS011;4028;43.272;26.932;2023-04-03T12:17:20;4.50;;;3.58;;
7965;SDS011;4028;43.272;26.932;2023-04-03T12:19:51;5.82;;;4.10;;
7965;SDS011;4028;43.272;26.932;2023-04-03T12:22:18;5.35;;;3.88;;
7965;SDS011;4028;43.272;26.932;2023-04-03T12:24:46;6.60;;;3.05;;
7965;SDS011;4028;43.272;26.932;2023-04-03T12:27:20;3.55;;;3.00;;
7965;SDS011;4028;43.272;26.932;2023-04-03T12:37:44;5.60;;;3.10;;
7965;SDS011;4028;43.272;26.932;2023-04-03T12:45:51;4.32;;;2.45;;
7965;SDS011;4028;43.272;26.932;2023-04-03T12:48:50;3.70;;;2.75;;
7965;SDS011;4028;43.272;26.932;2023-04-03T12:56:39;1.70;;;1.60;;
7965;SDS011;4028;43.272;26.932;2023-04-03T12:59:24;1.95;;;1.75;;
7965;SDS011;4028;43.272;26.932;2023-04-03T13:01:55;3.17;;;1.50;;
7965;SDS011;4028;43.272;26.932;2023-04-03T13:04:25;3.67;;;2.17;;
7965;SDS011;4028;43.272;26.932;2023-04-03T13:06:52;3.70;;;2.20;;
7965;SDS011;4028;43.272;26.932;2023-04-03T13:09:25;2.53;;;2.33;;
7965;SDS011;4028;43.272;26.932;2023-04-03T13:14:24;3.70;;;1.70;;
7965;SDS011;4028;43.272;26.932;2023-04-03T13:16:54;2.50;;;1.50;;
7965;SDS011;4028;43.272;26.932;2023-04-03T13:19:20;4.55;;;2.28;;
7965;SDS011;4028;43.272;26.932;2023-04-03T13:21:49;3.10;;;2.03;;
7965;SDS011;4028;43.272;26.932;2023-04-03T13:24:24;2.35;;;2.15;;
7965;SDS011;4028;43.272;26.932;2023-04-03T13:26:51;4.57;;;2.47;;
7965;SDS011;4028;43.272;26.932;2023-04-03T13:29:28;2.50;;;2.10;;
7965;SDS011;4028;43.272;26.932;2023-04-03T13:31:56;2.27;;;1.80;;
7965;SDS011;4028;43.272;26.932;2023-04-03T13:34:24;2.30;;;2.10;;
7965;SDS011;4028;43.272;26.932;2023-04-03T13:41:47;2.90;;;2.60;;
7965;SDS011;4028;43.272;26.932;2023-04-03T13:46:49;4.67;;;3.90;;
7965;SDS011;4028;43.272;26.932;2023-04-03T13:49:39;5.73;;;4.70;;
7965;SDS011;4028;43.272;26.932;2023-04-03T13:52:27;5.23;;;4.73;;
7965;SDS011;4028;43.272;26.932;2023-04-03T13:54:55;7.27;;;5.97;;
7965;SDS011;4028;43.272;26.932;2023-04-03T13:57:23;5.83;;;5.23;;
7965;SDS011;4028;43.272;26.932;2023-04-03T13:59:49;6.30;;;5.57;;
7965;SDS011;4028;43.272;26.932;2023-04-03T14:04:52;5.63;;;5.13;;
7965;SDS011;4028;43.272;26.932;2023-04-03T14:07:23;6.93;;;5.97;;
7965;SDS011;4028;43.272;26.932;2023-04-03T14:09:49;8.47;;;5.50;;
7965;SDS011;4028;43.272;26.932;2023-04-03T14:12:16;5.70;;;5.07;;
7965;SDS011;4028;43.272;26.932;2023-04-03T14:14:45;5.87;;;5.37;;
7965;SDS011;4028;43.272;26.932;2023-04-03T14:17:15;6.67;;;5.80;;
7965;SDS011;4028;43.272;26.932;2023-04-03T14:19:43;6.43;;;5.40;;
7965;SDS011;4028;43.272;26.932;2023-04-03T14:22:15;5.63;;;5.13;;
7965;SDS011;4028;43.272;26.932;2023-04-03T14:24:43;5.80;;;5.40;;
7965;SDS011;4028;43.272;26.932;2023-04-03T14:27:21;5.80;;;5.30;;
7965;SDS011;4028;43.272;26.932;2023-04-03T14:29:55;8.27;;;6.03;;
7965;SDS011;4028;43.272;26.932;2023-04-03T14:32:23;6.20;;;5.60;;
7965;SDS011;4028;43.272;26.932;2023-04-03T14:34:50;6.00;;;5.50;;
7965;SDS011;4028;43.272;26.932;2023-04-03T14:37:21;6.53;;;5.93;;
7965;SDS011;4028;43.272;26.932;2023-04-03T14:39:48;8.07;;;6.23;;
7965;SDS011;4028;43.272;26.932;2023-04-03T14:42:18;6.37;;;5.77;;
7965;SDS011;4028;43.272;26.932;2023-04-03T14:44:47;6.27;;;5.77;;
7965;SDS011;4028;43.272;26.932;2023-04-03T14:47:14;6.77;;;5.70;;
7965;SDS011;4028;43.272;26.932;2023-04-03T14:49:43;6.33;;;5.83;;
7965;SDS011;4028;43.272;26.932;2023-04-03T14:52:20;6.57;;;5.97;;
7965;SDS011;4028;43.272;26.932;2023-04-03T14:54:48;6.80;;;6.17;;
7965;SDS011;4028;43.272;26.932;2023-04-03T14:57:15;6.20;;;5.60;;
7965;SDS011;4028;43.272;26.932;2023-04-03T14:59:42;7.03;;;6.43;;
7965;SDS011;4028;43.272;26.932;2023-04-03T15:02:29;7.97;;;6.97;;
7965;SDS011;4028;43.272;26.932;2023-04-03T15:04:57;6.63;;;6.03;;
7965;SDS011;4028;43.272;26.932;2023-04-03T15:07:25;7.23;;;6.20;;
7965;SDS011;4028;43.272;26.932;2023-04-03T15:09:53;6.83;;;6.17;;
7965;SDS011;4028;43.272;26.932;2023-04-03T15:12:21;5.70;;;5.20;;
7965;SDS011;4028;43.272;26.932;2023-04-03T15:14:48;7.13;;;6.43;;
7965;SDS011;4028;43.272;26.932;2023-04-03T15:17:14;8.83;;;7.67;;
7965;SDS011;4028;43.272;26.932;2023-04-03T15:19:42;6.87;;;6.20;;
7965;SDS011;4028;43.272;26.932;2023-04-03T15:22:18;6.80;;;6.03;;
7965;SDS011;4028;43.272;26.932;2023-04-03T15:24:44;7.60;;;6.90;;
7965;SDS011;4028;43.272;26.932;2023-04-03T15:27:11;7.67;;;6.97;;
7965;SDS011;4028;43.272;26.932;2023-04-03T15:29:38;8.83;;;8.03;;
7965;SDS011;4028;43.272;26.932;2023-04-03T15:32:05;7.93;;;7.23;;
7965;SDS011;4028;43.272;26.932;2023-04-03T15:34:30;9.53;;;8.63;;
7965;SDS011;4028;43.272;26.932;2023-04-03T15:36:56;9.13;;;8.23;;
7965;SDS011;4028;43.272;26.932;2023-04-03T15:39:22;9.27;;;8.30;;
7965;SDS011;4028;43.272;26.932;2023-04-03T15:41:48;7.30;;;6.70;;
7965;SDS011;4028;43.272;26.932;2023-04-03T15:44:14;8.93;;;8.13;;
7965;SDS011;4028;43.272;26.932;2023-04-03T15:46:42;8.40;;;7.60;;
7965;SDS011;4028;43.272;26.932;2023-04-03T15:49:08;8.43;;;7.50;;
7965;SDS011;4028;43.272;26.932;2023-04-03T15:51:34;9.67;;;7.87;;
7965;SDS011;4028;43.272;26.932;2023-04-03T15:54:00;8.43;;;7.63;;
7965;SDS011;4028;43.272;26.932;2023-04-03T15:56:26;8.63;;;7.73;;
7965;SDS011;4028;43.272;26.932;2023-04-03T15:58:51;10.03;;;9.10;;
7965;SDS011;4028;43.272;26.932;2023-04-03T16:01:17;9.43;;;8.23;;
7965;SDS011;4028;43.272;26.932;2023-04-03T16:03:42;9.33;;;8.43;;
7965;SDS011;4028;43.272;26.932;2023-04-03T16:06:13;9.07;;;8.17;;
7965;SDS011;4028;43.272;26.932;2023-04-03T16:08:40;8.67;;;7.87;;
7965;SDS011;4028;43.272;26.932;2023-04-03T16:11:06;10.57;;;9.53;;
7965;SDS011;4028;43.272;26.932;2023-04-03T16:13:32;9.67;;;8.77;;
7965;SDS011;4028;43.272;26.932;2023-04-03T16:15:58;9.93;;;9.03;;
7965;SDS011;4028;43.272;26.932;2023-04-03T16:18:25;9.23;;;8.33;;
7965;SDS011;4028;43.272;26.932;2023-04-03T16:20:51;9.00;;;8.10;;
7965;SDS011;4028;43.272;26.932;2023-04-03T16:23:17;9.07;;;8.17;;
7965;SDS011;4028;43.272;26.932;2023-04-03T16:25:43;10.70;;;9.60;;
7965;SDS011;4028;43.272;26.932;2023-04-03T16:28:11;11.10;;;9.50;;
7965;SDS011;4028;43.272;26.932;2023-04-03T16:30:38;10.53;;;9.50;;
7965;SDS011;4028;43.272;26.932;2023-04-03T16:33:08;11.50;;;10.40;;
7965;SDS011;4028;43.272;26.932;2023-04-03T16:35:34;12.73;;;11.43;;
7965;SDS011;4028;43.272;26.932;2023-04-03T16:38:00;12.67;;;11.33;;
7965;SDS011;4028;43.272;26.932;2023-04-03T16:40:26;14.50;;;12.87;;
7965;SDS011;4028;43.272;26.932;2023-04-03T16:42:52;13.43;;;12.03;;
7965;SDS011;4028;43.272;26.932;2023-04-03T16:45:17;11.03;;;9.90;;
7965;SDS011;4028;43.272;26.932;2023-04-03T16:47:43;12.20;;;10.47;;
7965;SDS011;4028;43.272;26.932;2023-04-03T16:50:09;13.67;;;10.77;;
7965;SDS011;4028;43.272;26.932;2023-04-03T16:52:35;11.93;;;10.83;;
7965;SDS011;4028;43.272;26.932;2023-04-03T16:55:00;12.47;;;11.17;;
7965;SDS011;4028;43.272;26.932;2023-04-03T16:57:26;11.90;;;10.70;;
7965;SDS011;4028;43.272;26.932;2023-04-03T16:59:52;11.47;;;10.43;;
7965;SDS011;4028;43.272;26.932;2023-04-03T17:02:18;12.70;;;11.50;;
7965;SDS011;4028;43.272;26.932;2023-04-03T17:04:45;11.57;;;10.47;;
7965;SDS011;4028;43.272;26.932;2023-04-03T17:07:10;10.90;;;9.80;;